Sant Hilari Sacalm





Hora UTC 20:45
Temperatura 2.0 ºC
Sòl 15 cm -1.4 ºC
Humitat 84.6 %
Pressió 999.5 hPa
Pluja 0.0 mm
Velocitat vent 3.8 km/h
Direcció vent SSE
Radiació solar 0.1 W/m²

Dades diàries 2021-11-27



Hora UTC (hivern +1h; estiu +2h)
Temperatura (ºC) Humitat (%) Pressió (hPa) Velocitat vent (km/h) Precipitació (mm) Radiació solar (W/m²)
Hora UTC Aire Sòl 15 cm Humitat Pressió Vel. Dir. Vel. Max Dir. Intent. màx 5 min. Rad. Sol.
00:05 1.8 0.2 94.8 1000.9 14.0 WNW 14.0 W 0.0 0.1
00:10 1.9 0.3 94.9 1000.8 13.7 WNW 25.0 WNW 0.0 0.1
00:15 1.9 0.2 94.8 1000.7 13.3 WNW 22.3 WNW 0.0 0.1
00:20 1.9 0.3 94.9 1000.6 13.5 WNW 19.6 WNW 0.0 0.1
00:25 1.9 0.3 95.0 1000.5 12.6 WNW 25.0 WNW 0.0 0.1
00:30 1.9 0.3 95.0 1000.4 14.8 WNW 30.4 W 0.0 0.1
00:35 1.9 0.3 95.0 1000.3 15.6 WNW 25.0 WNW 0.0 0.1
00:40 2.0 0.4 95.0 1000.2 16.8 WNW 33.1 W 0.0 0.1
00:45 2.0 0.3 94.9 1000.2 11.6 W 25.0 W 0.0 0.1
00:50 2.0 0.4 95.0 1000.2 14.7 W 33.1 WNW 0.0 0.1
00:55 1.9 0.4 94.9 1000.0 13.2 WNW 27.7 WSW 0.0 0.1
01:00 1.8 0.3 94.8 999.8 11.7 WNW 27.7 WNW 0.0 0.1
01:05 1.8 0.2 94.8 999.7 16.8 W 33.1 SSW 0.0 0.2
01:10 1.7 0.1 94.4 999.7 14.5 WSW 35.8 W 0.0 0.1
01:15 1.7 0.0 94.1 999.7 13.3 WSW 35.8 W 0.0 0.1
01:20 1.7 0.0 93.5 999.6 15.8 W 33.1 WNW 0.0 0.1
01:25 1.7 -0.1 92.2 999.5 11.6 WSW 33.1 WSW 0.0 0.1
01:30 1.8 -0.1 90.4 999.4 18.5 W 35.8 WNW 0.0 0.1
01:35 1.9 0.0 89.2 999.3 17.8 WNW 38.5 NW 0.0 0.1
01:40 2.0 0.1 87.7 999.2 18.4 W 35.8 W 0.0 0.1
01:45 2.0 0.1 87.6 999.3 17.6 WNW 33.1 WNW 0.0 0.1
01:50 1.8 0.0 88.9 999.2 18.2 W 35.8 W 0.0 0.1
01:55 1.8 0.0 89.1 999.1 18.6 W 35.8 WNW 0.0 0.1
02:00 1.8 -0.1 88.9 999.1 14.6 W 30.4 W 0.0 0.1
02:05 1.7 -0.1 89.1 999.1 20.1 WNW 38.5 W 0.0 0.1
02:10 1.8 -0.1 88.4 999.0 16.8 W 35.8 W 0.0 0.1
02:15 1.8 0.0 88.8 999.0 19.0 WNW 35.8 WNW 0.0 0.1
02:20 1.8 -0.1 88.7 998.9 18.5 W 35.8 WNW 0.0 0.1
02:25 1.7 -0.1 88.8 998.8 19.4 W 43.9 W 0.0 0.1
02:30 1.8 -0.1 88.8 998.7 22.7 WNW 41.2 WNW 0.0 0.1
02:35 1.8 0.0 88.7 998.6 21.4 WNW 43.9 NW 0.0 0.1
02:40 1.7 0.0 89.5 998.5 22.5 WNW 41.2 WNW 0.0 0.1
02:45 1.6 0.0 90.3 998.4 24.9 WNW 41.2 WNW 0.0 0.1
02:50 1.7 0.1 89.7 998.3 24.8 WNW 43.9 WNW 0.0 0.1
02:55 1.9 0.2 88.0 998.1 24.9 WNW 43.9 W 0.0 0.1
03:00 2.0 0.2 86.8 998.1 23.8 WNW 41.2 WNW 0.0 0.1
03:05 1.9 0.1 86.8 998.0 22.6 WNW 38.5 WNW 0.0 0.1
03:10 1.6 0.0 88.3 997.9 24.8 WNW 38.5 WNW 0.0 0.1
03:15 1.5 -0.1 89.2 997.9 21.6 WNW 41.2 WNW 0.0 0.1
03:20 1.7 -0.1 87.4 997.8 22.2 WNW 41.2 WNW 0.0 0.1
03:25 1.7 -0.1 86.2 997.8 23.8 WNW 46.6 W 0.0 0.2
03:30 1.4 -0.2 87.8 997.7 26.6 WNW 41.2 WNW 0.0 0.1
03:35 1.4 -0.2 88.8 997.6 23.6 WNW 41.2 WNW 0.0 0.1
03:40 1.3 -0.2 88.4 997.5 20.3 WNW 41.2 WNW 0.0 0.1
03:45 1.1 -0.3 89.2 997.5 22.9 WNW 41.2 W 0.0 0.1
03:50 1.0 -0.3 89.6 997.4 24.4 WNW 41.2 W 0.0 0.1
03:55 0.8 -0.4 90.8 997.3 22.9 WNW 41.2 WNW 0.0 0.1
04:00 1.0 -0.4 90.5 997.2 21.9 WNW 38.5 W 0.0 0.1
04:05 1.0 -0.4 89.1 997.1 20.7 WNW 38.5 WNW 0.0 0.1
04:10 1.0 -0.4 89.0 997.1 22.2 WNW 41.2 WNW 0.0 0.1
04:15 0.8 -0.5 89.6 997.1 21.9 WNW 38.5 SW 0.0 0.1
04:20 0.5 -0.6 91.3 997.0 22.6 WNW 41.2 NW 0.0 0.1
04:25 0.5 -0.6 91.9 997.0 24.5 WNW 43.9 WNW 0.0 0.1
04:30 0.4 -0.7 92.2 997.0 25.5 WNW 52.0 WNW 0.0 0.1
04:35 0.2 -0.7 93.0 997.0 24.5 WNW 43.9 NW 0.0 0.1
04:40 0.2 -0.8 93.5 996.9 24.3 WNW 46.6 NW 0.0 0.2
04:45 0.3 -0.7 92.9 996.9 22.2 WNW 38.5 WNW 0.0 0.1
04:50 0.3 -0.8 92.4 996.8 24.4 WNW 49.3 W 0.0 0.1
04:55 0.2 -0.8 92.9 996.7 19.6 WNW 38.5 NW 0.0 0.1
05:00 0.4 -0.7 92.0 996.7 25.3 WNW 41.2 WNW 0.0 0.1
05:05 0.4 -0.7 91.2 996.6 24.2 WNW 41.2 W 0.0 0.1
05:10 0.5 -0.7 90.9 996.5 25.5 WNW 43.9 WNW 0.0 0.1
05:15 0.4 -0.7 91.0 996.5 24.0 WNW 38.5 W 0.0 0.1
05:20 0.3 -0.8 91.3 996.5 24.6 WNW 41.2 WNW 0.0 0.1
05:25 0.3 -0.8 92.0 996.4 24.1 WNW 43.9 WNW 0.0 0.1
05:30 0.4 -0.7 91.8 996.4 23.9 WNW 43.9 NW 0.0 0.1
05:35 0.4 -0.7 91.7 996.3 25.7 WNW 46.6 WNW 0.0 0.1
05:40 0.5 -0.7 91.7 996.2 28.0 WNW 43.9 NW 0.0 0.1
05:45 0.5 -0.7 92.0 996.1 27.4 WNW 49.3 WNW 0.0 0.1
05:50 0.5 -0.7 92.0 996.1 27.9 WNW 43.9 W 0.0 0.1
05:55 0.5 -0.7 92.4 996.1 28.7 WNW 46.6 WNW 0.0 0.1
06:00 0.5 -0.6 92.2 996.1 28.8 WNW 46.6 WNW 0.0 0.1
06:05 0.4 -0.7 92.4 996.1 28.1 WNW 46.6 W 0.0 0.1
06:10 0.3 -0.7 93.2 996.1 29.7 WNW 52.0 NW 0.0 0.1
06:15 0.3 -0.8 93.8 996.2 26.9 WNW 52.0 WNW 0.0 0.1
06:20 0.3 -0.8 94.1 996.2 28.6 WNW 46.6 NW 0.0 0.1
06:25 0.4 -0.7 94.2 996.1 28.4 WNW 52.0 NW 0.0 0.1
06:30 0.4 -0.6 94.2 996.0 28.9 WNW 54.7 NW 0.0 0.1
06:35 0.4 -0.6 94.4 996.0 28.1 WNW 52.0 WNW 0.0 0.2
06:40 0.5 -0.6 94.6 996.0 28.7 WNW 52.0 WNW 0.0 0.4
06:45 0.6 -0.5 94.7 995.8 30.3 WNW 52.0 WNW 0.0 1.0
06:50 0.6 -0.5 94.7 995.8 28.5 WNW 52.0 WSW 0.0 1.9
06:55 0.7 -0.4 94.9 995.7 30.7 WNW 57.4 W 0.0 3.1
07:00 0.7 -0.3 94.7 995.7 31.1 WNW 49.3 W 0.0 4.1
07:05 0.8 -0.3 94.6 995.6 28.6 WNW 57.4 W 0.0 5.9
07:10 0.8 -0.3 94.4 995.6 30.9 WNW 54.7 WNW 0.0 8.2
07:15 0.9 -0.2 94.1 995.6 31.7 WNW 54.7 WNW 0.0 11.3
07:20 1.0 -0.1 93.7 995.6 32.4 WNW 57.4 NW 0.0 12.7
07:25 1.1 -0.1 93.6 995.5 30.4 WNW 54.7 WNW 0.0 14.8
07:30 1.1 0.0 93.3 995.5 29.5 WNW 65.5 WSW 0.0 52.6
07:35 1.2 0.1 93.1 995.5 28.4 WNW 54.7 WNW 0.0 88.2
07:40 1.4 0.1 92.6 995.5 27.1 WNW 49.3 W 0.0 104.2
07:45 1.5 0.3 92.0 995.4 26.6 WNW 49.3 WSW 0.0 115.6
07:50 1.6 0.4 91.2 995.5 25.5 WNW 49.3 WNW 0.0 129.0
07:55 1.8 0.5 90.4 995.6 31.0 WNW 52.0 WNW 0.0 141.3
08:00 1.8 0.6 89.9 995.7 29.4 WNW 54.7 NW 0.0 153.4
08:05 1.8 0.8 90.3 995.7 27.5 WNW 57.4 NNW 0.0 165.6
08:10 1.9 1.2 90.6 995.9 22.0 WNW 52.0 NW 0.0 183.4
08:15 2.0 1.6 90.5 996.0 19.0 WNW 43.9 NW 0.0 208.8
08:20 2.2 2.0 90.3 996.0 15.0 NW 38.5 W 0.0 222.0
08:25 2.2 2.2 90.0 996.1 19.4 WNW 57.4 NW 0.0 219.8
08:30 2.2 2.4 90.3 996.2 20.3 WNW 43.9 W 0.0 222.7
08:35 2.1 2.5 90.8 996.3 22.6 WNW 54.7 WNW 0.0 191.3
08:40 1.9 2.4 91.7 996.3 24.3 WNW 46.6 NW 0.0 232.5
08:45 1.9 2.5 92.3 996.3 23.7 WNW 43.9 WNW 0.0 257.3
08:50 2.0 2.9 92.2 996.4 20.8 WNW 41.2 W 0.0 253.3
08:55 2.1 3.0 92.1 996.4 22.3 WNW 43.9 WNW 0.0 254.9
09:00 2.1 3.2 92.1 996.4 23.3 WNW 43.9 WNW 0.0 271.0
09:05 2.1 3.3 92.3 996.4 18.8 WNW 43.9 NW 0.0 239.6
09:10 2.0 3.3 92.4 996.5 18.5 NW 43.9 NW 0.0 216.6
09:15 2.2 3.5 92.9 996.5 14.8 NW 33.1 W 0.0 228.9
09:20 2.1 3.3 92.8 996.6 17.0 NW 38.5 WNW 0.0 202.4
09:25 2.2 3.4 93.1 996.8 14.0 NW 33.1 NNW 0.0 262.6
09:30 2.5 4.0 92.6 996.9 13.9 NW 46.6 NW 0.0 319.7
09:35 2.7 4.5 91.4 996.9 18.4 NW 38.5 NW 0.0 322.0
09:40 2.7 4.6 90.8 996.8 19.0 WNW 38.5 WNW 0.0 365.2
09:45 3.0 5.1 90.6 996.9 12.2 NW 27.7 N 0.0 369.6
09:50 3.2 5.4 89.1 996.9 17.5 WNW 35.8 NW 0.0 375.3
09:55 3.2 5.2 88.9 996.9 19.5 WNW 33.1 WNW 0.0 391.6
10:00 3.3 5.5 88.6 996.9 17.4 WNW 33.1 WNW 0.0 396.6
10:05 3.5 6.1 88.2 997.0 17.1 WNW 35.8 WNW 0.0 416.5
10:10 3.6 6.5 87.2 997.0 20.6 WNW 41.2 W 0.0 419.8
10:15 3.4 6.2 87.0 997.0 19.2 WNW 35.8 WSW 0.0 419.4
10:20 3.6 6.3 87.3 997.0 19.5 WNW 35.8 NW 0.0 340.0
10:25 3.4 6.0 87.3 997.1 21.8 WNW 43.9 NW 0.0 377.3
10:30 3.3 5.9 87.5 997.1 22.5 WNW 41.2 NW 0.0 381.0
10:35 3.4 6.0 88.1 997.1 21.1 WNW 41.2 WNW 0.0 469.5
10:40 3.8 7.0 86.9 997.2 18.3 WNW 41.2 WNW 0.0 497.3
10:45 3.8 7.2 86.2 997.2 18.7 WNW 35.8 WNW 0.0 467.2
10:50 4.1 7.4 86.0 997.1 13.1 WNW 33.1 WSW 0.0 465.2
10:55 4.2 7.7 84.9 997.1 15.0 WNW 30.4 WNW 0.0 485.1
11:00 4.3 7.9 84.4 997.1 13.9 NW 33.1 WSW 0.0 428.4
11:05 4.4 8.6 84.1 997.1 14.1 NW 30.4 NW 0.0 534.0
11:10 4.7 9.3 83.6 997.0 12.4 NNW 27.7 NW 0.0 487.0
11:15 4.4 8.1 82.8 997.0 11.5 NW 27.7 NNW 0.0 182.0
11:20 4.2 7.2 84.1 997.1 14.3 NW 33.1 WNW 0.0 391.5
11:25 4.7 8.4 84.3 997.0 13.4 NNW 25.0 NW 0.0 623.8
11:30 5.2 9.5 82.1 996.9 15.1 NNW 27.7 NNW 0.0 512.7
11:35 4.8 8.9 81.9 996.8 15.1 NNW 27.7 NNW 0.0 411.5
11:40 4.6 8.1 82.4 996.9 15.1 WNW 30.4 NW 0.0 383.3
11:45 4.4 7.7 82.9 996.9 14.2 WNW 25.0 NNW 0.0 360.9
11:50 4.6 8.2 83.4 996.9 13.9 NW 33.1 NW 0.0 552.8
11:55 5.3 9.5 81.7 996.9 13.4 WNW 30.4 W 0.0 522.2
12:00 5.2 8.8 80.3 996.9 13.4 WNW 30.4 WSW 0.0 190.3
12:05 4.4 7.0 82.3 996.9 15.9 WNW 33.1 W 0.0 176.2
12:10 4.2 6.1 84.2 996.9 14.6 WNW 33.1 WNW 0.0 188.5
12:15 4.4 6.1 84.0 996.9 13.0 W 27.7 WSW 0.0 203.6
12:20 4.5 6.0 83.6 996.8 14.8 W 30.4 W 0.0 189.6
12:25 4.4 5.7 83.2 996.8 15.2 WNW 33.1 NW 0.0 199.6
12:30 4.5 5.7 83.2 996.8 18.3 WNW 35.8 WNW 0.0 195.2
12:35 4.5 5.8 83.0 996.8 13.1 WNW 33.1 WNW 0.0 210.4
12:40 4.7 6.1 82.4 996.7 12.0 NW 22.3 NW 0.0 226.3
12:45 4.9 6.4 82.5 996.8 12.3 NNW 25.0 NNE 0.0 252.1
12:50 5.0 6.7 81.4 996.8 10.4 NW 19.6 NNW 0.0 249.6
12:55 5.3 7.0 80.0 996.8 11.1 WNW 22.3 WSW 0.0 227.5
13:00 5.4 7.0 80.0 996.8 7.5 NW 14.2 NW 0.0 189.1
13:05 5.4 6.8 78.2 996.7 9.9 NW 19.6 N 0.0 169.0
13:10 5.4 6.7 77.7 996.8 7.4 N 14.2 NW 0.0 176.8
13:15 5.6 6.9 77.0 996.9 9.4 N 16.9 NNW 0.0 174.5
13:20 5.6 6.8 74.0 997.0 12.2 N 19.6 NNE 0.0 181.7
13:25 5.7 6.9 74.2 997.0 10.3 N 22.3 N 0.0 211.5
13:30 5.9 7.4 73.9 996.8 12.0 N 19.6 NNE 0.0 286.8
13:35 6.2 8.1 72.1 996.6 13.1 NNE 25.0 N 0.0 431.5
13:40 6.4 8.7 70.8 996.5 10.4 N 25.0 N 0.0 287.6
13:45 6.4 8.7 70.4 996.7 10.5 NNE 19.6 NNW 0.0 207.1
13:50 6.3 8.2 70.2 996.8 10.4 NNE 19.6 NNE 0.0 180.4
13:55 6.2 7.8 70.9 996.7 11.4 NNE 25.0 NW 0.0 156.0
14:00 6.1 7.5 71.2 996.7 6.2 NNE 14.2 0.0 148.7
14:05 6.2 7.5 71.5 996.6 5.4 NNE 14.2 N 0.0 154.7
14:10 6.2 7.4 71.1 996.7 4.8 NNE 11.5 NNE 0.0 125.6
14:15 6.1 7.2 72.1 996.8 6.9 N 11.5 NNW 0.0 102.9
14:20 6.0 6.9 72.7 996.9 4.7 N 8.8 N 0.0 84.9
14:25 6.0 6.7 72.6 997.0 2.1 NNE 6.1 NE 0.0 65.6
14:30 6.1 6.6 73.2 997.0 3.9 NE 8.8 E 0.0 72.1
14:35 5.9 6.4 74.2 996.9 4.4 NNE 8.8 NNE 0.0 86.4
14:40 5.9 6.4 74.8 997.1 0.1 WNW 3.4 WNW 0.0 87.8
14:45 5.9 6.2 73.2 997.3 1.7 SW 6.1 SSW 0.0 77.5
14:50 6.0 6.1 71.9 997.4 2.6 SSW 6.1 SW 0.0 84.7
14:55 6.0 6.0 72.2 997.4 1.1 ESE 6.1 ESE 0.0 88.5
15:00 5.9 5.8 73.9 997.4 0.4 SW 3.4 SSE 0.0 81.0
15:05 5.9 5.6 74.4 997.5 0.4 SSE 6.1 S 0.0 72.6
15:10 5.9 5.3 73.5 997.5 3.0 S 6.1 S 0.0 70.6
15:15 5.8 5.2 73.4 997.5 4.1 SSE 8.8 S 0.0 63.9
15:20 5.8 5.0 73.3 997.5 3.9 SSW 8.8 S 0.0 58.3
15:25 5.7 4.9 73.1 997.5 3.4 SSW 8.8 SSW 0.0 52.1
15:30 5.7 4.7 74.4 997.6 3.3 SW 8.8 SSW 0.0 43.1
15:35 5.6 4.4 75.3 997.6 3.5 SSW 6.1 SW 0.0 35.7
15:40 5.5 4.2 75.8 997.6 3.0 SE 8.8 SE 0.0 30.6
15:45 5.3 3.9 76.7 997.7 1.6 SSE 6.1 SE 0.0 26.3
15:50 5.2 3.6 76.6 997.7 3.0 S 8.8 SSW 0.0 23.2
15:55 5.2 3.5 75.7 997.7 5.3 S 8.8 S 0.0 19.7
16:00 5.2 3.4 76.0 997.8 5.5 S 8.8 SSW 0.0 16.4
16:05 5.2 3.3 76.1 997.8 4.5 S 11.5 SSW 0.0 13.0
16:10 5.1 3.1 77.0 997.8 5.6 SSW 11.5 WSW 0.0 9.2
16:15 5.0 3.0 77.7 997.8 6.1 SSW 11.5 S 0.0 5.9
16:20 4.8 2.9 79.3 997.8 11.0 S 19.6 S 0.0 3.6
16:25 4.5 2.9 82.5 997.9 9.6 S 19.6 S 0.0 3.0
16:30 4.4 2.7 83.8 997.9 5.6 SSW 11.5 SSW 0.0 2.8
16:35 4.3 2.5 84.4 998.0 5.0 SSW 11.5 SSW 0.0 1.1
16:40 4.2 2.2 84.9 998.0 3.6 SW 8.8 SSW 0.0 0.4
16:45 4.0 2.1 85.6 998.1 5.2 WSW 8.8 WNW 0.0 0.2
16:50 3.9 1.8 86.3 998.2 2.9 SSW 8.8 SSW 0.0 0.1
16:55 3.8 1.6 86.7 998.2 4.8 SW 8.8 WSW 0.0 0.1
17:00 3.8 1.5 87.1 998.2 3.0 SW 8.8 SW 0.0 0.1
17:05 3.6 1.1 87.4 998.2 4.1 WSW 6.1 W 0.0 0.1
17:10 3.5 0.9 87.7 998.2 4.8 WSW 8.8 SW 0.0 0.1
17:15 3.5 0.9 87.5 998.3 6.2 WNW 14.2 NW 0.0 0.1
17:20 3.4 1.1 87.2 998.4 6.9 NW 14.2 WNW 0.0 0.1
17:25 3.4 1.1 86.4 998.4 7.3 WSW 14.2 WSW 0.0 0.1
17:30 3.3 1.2 87.2 998.3 10.0 SW 16.9 WSW 0.0 0.1
17:35 3.6 1.3 86.0 998.3 9.3 SW 16.9 SW 0.0 0.1
17:40 3.8 1.4 83.6 998.5 5.9 WSW 16.9 WSW 0.0 0.1
17:45 3.7 1.4 83.5 998.6 4.8 W 11.5 WNW 0.0 0.1
17:50 3.6 1.3 84.2 998.7 8.2 W 22.3 NW 0.0 0.1
17:55 3.8 1.3 84.0 998.7 6.4 WSW 16.9 WSW 0.0 0.1
18:00 3.8 1.2 84.0 998.8 6.6 SW 16.9 WSW 0.0 0.1
18:05 3.8 1.1 83.8 998.7 6.2 SW 11.5 SW 0.0 0.1
18:10 3.8 0.9 83.6 998.8 6.2 WSW 14.2 W 0.0 0.1
18:15 3.6 0.6 84.2 998.8 5.1 WSW 11.5 W 0.0 0.1
18:20 3.4 0.3 85.0 998.9 4.5 SW 11.5 WSW 0.0 0.1
18:25 3.4 0.1 85.6 998.9 4.3 WSW 11.5 WSW 0.0 0.1
18:30 3.1 -0.1 85.6 998.9 4.5 W 11.5 WNW 0.0 0.1
18:35 2.8 -0.3 86.2 999.0 6.2 W 14.2 WNW 0.0 0.1
18:40 2.7 -0.3 86.4 998.9 6.1 W 14.2 W 0.0 0.1
18:45 2.6 -0.4 86.6 998.9 8.1 W 14.2 WNW 0.0 0.1
18:50 2.5 -0.5 86.6 999.0 6.9 W 11.5 WSW 0.0 0.1
18:55 2.4 -0.6 86.5 999.1 4.7 W 11.5 W 0.0 0.1
19:00 2.5 -0.7 86.0 999.1 6.3 WSW 14.2 WNW 0.0 0.1
19:05 2.4 -0.9 85.4 999.1 4.3 W 11.5 W 0.0 0.1
19:10 2.5 -0.8 85.5 999.1 5.0 WSW 11.5 WNW 0.0 0.1
19:15 2.3 -0.9 85.7 999.0 4.4 SW 8.8 W 0.0 0.1
19:20 2.2 -1.0 86.8 999.1 5.1 WSW 11.5 WSW 0.0 0.1
19:25 2.3 -0.9 86.5 999.1 6.5 SW 8.8 W 0.0 0.2
19:30 2.6 -0.8 84.9 999.1 7.7 SW 14.2 WSW 0.0 0.1
19:35 2.5 -0.7 84.7 999.1 5.0 WSW 11.5 SW 0.0 0.2
19:40 2.1 -1.0 85.3 999.2 5.4 W 11.5 WNW 0.0 0.1
19:45 2.0 -1.2 86.6 999.3 6.3 WSW 14.2 WNW 0.0 0.1
19:50 2.1 -1.4 86.2 999.4 3.2 SW 8.8 SW 0.0 0.1
19:55 2.2 -1.3 85.8 999.5 4.4 SSW 8.8 SW 0.0 0.1
20:00 2.3 -1.3 84.5 999.5 2.2 SSW 6.1 S 0.0 0.1
20:05 2.2 -1.7 84.3 999.5 0.9 WSW 6.1 W 0.0 0.1
20:10 2.1 -1.9 84.7 999.5 6.0 SW 11.5 SSW 0.0 0.1
20:15 2.3 -1.5 84.1 999.4 8.3 SW 14.2 SSW 0.0 0.1
20:20 2.3 -1.3 83.1 999.4 5.7 WSW 11.5 SW 0.0 0.1
20:25 1.9 -1.4 84.2 999.5 3.5 WNW 8.8 W 0.0 0.1
20:30 1.8 -1.5 85.1 999.5 3.8 WNW 8.8 WSW 0.0 0.1
20:35 2.0 -1.6 84.2 999.5 4.4 W 11.5 WSW 0.0 0.1
20:40 2.0 -1.5 84.7 999.5 5.0 WSW 14.2 WNW 0.0 0.1
20:45 2.0 -1.4 84.6 999.5 3.8 SSE 8.8 S 0.0 0.1
Màxima 6.5 9.5 95.0 1000.9 32.4 WNW 65.5 WSW 0.0 623.8
Mínima 0.1 -1.9 70.2 995.4
Total 0.0